Meteo18 Weather Cam more information Meteo18 Weather Cam


Thunder radar more information blitzortung!


Rain radar more information rain snow radar



Select another period ( hide this area )

Units Period Custom range Directly to
Metric English Both
Daily Weekly Monthly Yearly
use both date-selectors for a custom range
previous Day
With this date

WeatherUnderground graphs for this period ( click here )


Daily Summary for Sunday 18 November 2018
Time Temp. ( °C ) Dew pt. ( °C ) Wind ( km/h ) from Gust ( km/h ) Pressure ( hPa ) Humid.( % ) Rainrate ( cm )
High3,4 0,4 14,3 NNE ( 25/49 ) 17,7 1017,2 85 -
Average2,8 0,2 3,5 NNE #8/22 7,2 1015,8 83 -
Low2,2 -0,1 -   0,0 1016,5 81 -
Daily Tabular details for Sunday 18 November 2018
Time Temp. ( °C ) Dew pt. ( °C ) Wind ( km/h ) from Gust ( km/h ) Pressure ( hPa ) Humid.( % ) Rainrate ( cm )
19:33 3,4 0,4   Calm   1017,2 81 -
19:39 3,3 0,4   Calm 6,4 1017,2 81 -
19:43 3,2 0,4   Calm 1,6 1017,2 82 -
19:49 3,1 0,3 3,2 NE 6,4 1017,2 82 -
19:53 3,1 0,3 3,2 NNE 6,4 1016,8 82 -
19:59 2,9 0,1   Calm 1,6 1016,8 82 -
20:03 3,0 0,4 7,9 NNE 8,0 1016,8 83 -
20:09 3,1 0,3 1,4 NNE 8,0 1016,8 82 -
20:13 2,9 0,1 3,2 NE 4,8 1016,8 82 -
20:19 2,8 0,2   Calm   1016,8 83 -
20:23 2,7 0,1   Calm   1016,8 83 -
20:29 2,5 -0,1 1,4 NNE 3,2 1016,8 83 -
20:33 2,4 0,0   Calm 1,6 1016,5 84 -
20:39 2,2 -0,1 1,4 NNE 3,2 1016,5 85 -
20:43 2,2 -0,1 3,2 North 8,0 1016,8 85 -
20:49 2,3 0,0 14,3 NE 14,5 1016,8 85 -
20:53 2,6 0,2 6,4 North 9,7 1016,8 84 -
20:59 2,7 0,3 11,1 NNE 12,9 1016,8 84 -
21:03 2,7 0,3 9,7 NNE 17,7 1016,8 84 -
21:09 2,8 0,2 1,4 NE 14,5 1016,8 83 -
21:13 2,8 0,2 6,4 NW 12,9 1016,8 83 -
21:19 2,7 0,1 4,7 NNE 16,1 1016,5 83 -
Daily Summary for Sunday 18 November 2018
Time Temp. ( °C ) Dew pt. ( °C ) Wind ( km/h ) from Gust ( km/h ) Pressure ( hPa ) Humid.( % ) Rainrate ( cm )
High3,4 0,4 14,3 NNE ( 25/49 ) 17,7 1017,2 85 -
Average2,8 0,2 3,5 NNE #8/22 7,2 1015,8 83 -
Low2,2 -0,1 -   0,0 1016,5 81 -
Daily Tabular details for Sunday 18 November 2018
Time Temp. ( °C ) Dew pt. ( °C ) Wind ( km/h ) from Gust ( km/h ) Pressure ( hPa ) Humid.( % ) Rainrate ( cm )
19:33 3,4 0,4   Calm   1017,2 81 -
19:39 3,3 0,4   Calm 6,4 1017,2 81 -
19:43 3,2 0,4   Calm 1,6 1017,2 82 -
19:49 3,1 0,3 3,2 NE 6,4 1017,2 82 -
19:53 3,1 0,3 3,2 NNE 6,4 1016,8 82 -
19:59 2,9 0,1   Calm 1,6 1016,8 82 -
20:03 3,0 0,4 7,9 NNE 8,0 1016,8 83 -
20:09 3,1 0,3 1,4 NNE 8,0 1016,8 82 -
20:13 2,9 0,1 3,2 NE 4,8 1016,8 82 -
20:19 2,8 0,2   Calm   1016,8 83 -
20:23 2,7 0,1   Calm   1016,8 83 -
20:29 2,5 -0,1 1,4 NNE 3,2 1016,8 83 -
20:33 2,4 0,0   Calm 1,6 1016,5 84 -
20:39 2,2 -0,1 1,4 NNE 3,2 1016,5 85 -
20:43 2,2 -0,1 3,2 North 8,0 1016,8 85 -
20:49 2,3 0,0 14,3 NE 14,5 1016,8 85 -
20:53 2,6 0,2 6,4 North 9,7 1016,8 84 -
20:59 2,7 0,3 11,1 NNE 12,9 1016,8 84 -
21:03 2,7 0,3 9,7 NNE 17,7 1016,8 84 -
21:09 2,8 0,2 1,4 NE 14,5 1016,8 83 -
21:13 2,8 0,2 6,4 NW 12,9 1016,8 83 -
21:19 2,7 0,1 4,7 NNE 16,1 1016,5 83 -

Download your copy of this data-set  here

Our weather-data as stored at Weather Underground. Script developed by Jim McMurry. Adapted for the template by Leuven-Template.eu

You find our weather info also at:

Weather Underground

Equipment we use:

Weather-station
Davis Vue

Weather-program
Meteobridge

Weather-server
Raspberry PI 2 B+

Provider
1 and 1

Davis Vue

Meteobridge

Raspberry PI 2 B+

1 and 1